createdAt,value
2023-05-23T00:00:31.467Z,1.30
2023-05-23T00:01:32.146Z,1.29
2023-05-23T00:02:31.464Z,1.27
2023-05-23T00:03:31.549Z,1.29
2023-05-23T00:04:31.558Z,1.27
2023-05-23T00:05:31.481Z,1.26
2023-05-23T00:06:31.487Z,1.29
2023-05-23T00:07:31.522Z,1.25
2023-05-23T00:08:31.536Z,1.26
2023-05-23T00:09:31.564Z,1.27
2023-05-23T00:10:31.597Z,1.26
2023-05-23T00:11:31.647Z,1.24
2023-05-23T00:12:31.681Z,1.27
2023-05-23T00:13:31.716Z,1.24
2023-05-23T00:14:31.742Z,1.22
2023-05-23T00:15:31.795Z,1.22
2023-05-23T00:16:31.891Z,1.23
2023-05-23T00:17:31.846Z,1.21
2023-05-23T00:18:31.851Z,1.24
2023-05-23T00:19:31.947Z,1.22
2023-05-23T00:20:32.234Z,1.22
2023-05-23T00:21:31.872Z,1.23
2023-05-23T00:22:31.849Z,1.22
2023-05-23T00:23:31.872Z,1.21
2023-05-23T00:24:31.907Z,1.20
2023-05-23T00:25:31.994Z,1.18
2023-05-23T00:26:31.977Z,1.21
2023-05-23T00:27:32.020Z,1.19
2023-05-23T00:28:32.038Z,1.21
2023-05-23T00:29:32.066Z,1.21
2023-05-23T00:30:32.096Z,1.19
2023-05-23T00:31:32.194Z,1.20
2023-05-23T00:32:32.152Z,1.18
2023-05-23T00:33:32.150Z,1.18
2023-05-23T00:34:32.188Z,1.17
2023-05-23T00:35:32.209Z,1.16
2023-05-23T00:36:32.295Z,1.16
2023-05-23T00:37:32.214Z,1.17
2023-05-23T00:38:32.217Z,1.15
2023-05-23T00:39:32.241Z,1.17
2023-05-23T00:40:32.246Z,1.15
2023-05-23T00:41:32.310Z,1.14
2023-05-23T00:42:32.273Z,1.16
2023-05-23T00:43:32.362Z,1.15
2023-05-23T00:44:32.276Z,1.17
2023-05-23T00:45:32.263Z,1.17
2023-05-23T00:46:32.262Z,1.16
2023-05-23T00:47:32.297Z,1.13
2023-05-23T00:48:32.213Z,1.13
2023-05-23T00:49:32.207Z,1.12
2023-05-23T00:50:32.186Z,1.12
2023-05-23T00:51:32.174Z,1.13
2023-05-23T00:52:32.267Z,1.12
2023-05-23T00:53:32.183Z,1.14
2023-05-23T00:54:32.194Z,1.14
2023-05-23T00:55:32.192Z,1.12
2023-05-23T00:56:32.200Z,1.09
2023-05-23T00:57:32.224Z,1.11
2023-05-23T00:58:32.324Z,1.10
2023-05-23T00:59:32.255Z,1.10
2023-05-23T01:00:32.238Z,1.10
2023-05-23T01:01:32.280Z,1.11
2023-05-23T01:02:32.311Z,1.10
2023-05-23T01:03:32.335Z,1.08
2023-05-23T01:04:32.228Z,1.10
2023-05-23T01:05:32.205Z,1.09
2023-05-23T01:06:32.209Z,1.09
2023-05-23T01:07:32.198Z,1.09
2023-05-23T01:08:32.261Z,1.11
2023-05-23T01:09:32.198Z,1.11
2023-05-23T01:10:32.187Z,1.10
2023-05-23T01:11:32.187Z,1.10
2023-05-23T01:12:32.244Z,1.09
2023-05-23T01:13:32.199Z,1.10
2023-05-23T01:14:32.172Z,1.08
2023-05-23T01:15:32.146Z,1.07
2023-05-23T01:16:32.194Z,1.08
2023-05-23T01:17:32.144Z,1.07
2023-05-23T01:18:32.119Z,1.08
2023-05-23T01:19:32.223Z,1.10
2023-05-23T01:20:32.134Z,1.06
2023-05-23T01:21:32.139Z,1.06
2023-05-23T01:22:32.154Z,1.06
2023-05-23T01:23:32.153Z,1.07
2023-05-23T01:24:32.250Z,1.04
2023-05-23T01:25:32.157Z,1.08
2023-05-23T01:26:32.178Z,1.06
2023-05-23T01:27:32.206Z,1.06
2023-05-23T01:28:32.299Z,1.05
2023-05-23T01:29:32.286Z,1.08
2023-05-23T01:30:32.312Z,1.05
2023-05-23T01:31:32.344Z,1.05
2023-05-23T01:32:32.375Z,1.03
2023-05-23T01:33:32.340Z,1.03
2023-05-23T01:34:32.339Z,1.05
2023-05-23T01:35:32.352Z,1.03
2023-05-23T01:36:32.365Z,1.03
2023-05-23T01:37:32.357Z,1.04
2023-05-23T01:38:32.354Z,1.04
2023-05-23T01:39:32.428Z,1.03
2023-05-23T01:40:32.470Z,1.02
2023-05-23T01:41:32.376Z,1.05
2023-05-23T01:42:32.359Z,1.04
2023-05-23T01:43:32.360Z,1.05
2023-05-23T01:44:32.347Z,1.05
2023-05-23T01:45:32.369Z,1.04
2023-05-23T01:46:32.364Z,1.04
2023-05-23T01:47:32.382Z,1.01
2023-05-23T01:48:32.395Z,1.02
2023-05-23T01:49:32.413Z,1.03
2023-05-23T01:50:32.442Z,1.00
2023-05-23T01:51:32.466Z,1.01
2023-05-23T01:52:32.493Z,1.00
2023-05-23T01:53:32.504Z,1.02
2023-05-23T01:54:32.596Z,1.02
2023-05-23T01:55:32.542Z,1.00
2023-05-23T01:56:32.672Z,1.01
2023-05-23T01:57:32.587Z,1.00
2023-05-23T01:58:32.594Z,1.02
2023-05-23T01:59:32.573Z,1.02
2023-05-23T02:00:32.631Z,1.01
2023-05-23T02:01:32.663Z,0.98
2023-05-23T02:02:32.720Z,0.98
2023-05-23T02:03:32.589Z,0.98
2023-05-23T02:04:32.531Z,0.98
2023-05-23T02:05:32.573Z,0.99
2023-05-23T02:06:32.582Z,0.98
2023-05-23T02:07:32.550Z,0.98
2023-05-23T02:08:32.554Z,0.99
2023-05-23T02:09:32.538Z,0.98
2023-05-23T02:10:32.538Z,0.97
2023-05-23T02:11:32.585Z,0.99
2023-05-23T02:12:32.647Z,1.00
2023-05-23T02:13:32.570Z,0.95
2023-05-23T02:14:32.612Z,0.96
2023-05-23T02:15:32.631Z,0.97
2023-05-23T02:16:32.657Z,0.97
2023-05-23T02:17:32.663Z,0.98
2023-05-23T02:18:32.653Z,0.98
2023-05-23T02:19:32.722Z,0.96
2023-05-23T02:20:32.725Z,0.98
2023-05-23T02:21:35.043Z,0.98
2023-05-23T02:22:32.708Z,0.96
2023-05-23T02:23:32.694Z,0.95
2023-05-23T02:24:32.711Z,0.96
2023-05-23T02:25:32.674Z,0.94
2023-05-23T02:26:32.645Z,0.94
2023-05-23T02:27:32.639Z,0.94
2023-05-23T02:28:32.702Z,0.94
2023-05-23T02:29:32.606Z,0.95
2023-05-23T02:30:32.588Z,0.96
2023-05-23T02:31:32.668Z,0.94
2023-05-23T02:32:33.204Z,0.92
2023-05-23T02:33:32.526Z,0.94
2023-05-23T02:34:32.528Z,0.92
2023-05-23T02:35:32.501Z,0.93
2023-05-23T02:36:32.486Z,0.92
2023-05-23T02:37:32.476Z,0.91
2023-05-23T02:38:32.438Z,0.93
2023-05-23T02:39:32.422Z,0.92
2023-05-23T02:40:32.406Z,0.91
2023-05-23T02:41:32.505Z,0.91
2023-05-23T02:42:32.370Z,0.90
2023-05-23T02:43:32.354Z,0.91
2023-05-23T02:44:32.418Z,0.92
2023-05-23T02:45:32.328Z,0.90
2023-05-23T02:46:32.363Z,0.89
2023-05-23T02:47:32.332Z,0.90
2023-05-23T02:48:32.284Z,0.90
2023-05-23T02:49:32.260Z,0.90
2023-05-23T02:50:32.236Z,0.88
2023-05-23T02:51:32.232Z,0.88
2023-05-23T02:52:32.198Z,0.87
2023-05-23T02:53:32.173Z,0.88
2023-05-23T02:54:32.169Z,0.87
2023-05-23T02:55:32.151Z,0.89
2023-05-23T02:56:32.124Z,0.88
2023-05-23T02:57:32.100Z,0.88
2023-05-23T02:58:32.083Z,0.87
2023-05-23T02:59:32.061Z,0.87
2023-05-23T03:00:32.133Z,0.86
2023-05-23T03:01:32.141Z,0.86
2023-05-23T03:02:32.138Z,0.85
2023-05-23T03:03:32.082Z,0.86
2023-05-23T03:04:32.684Z,0.87
2023-05-23T03:05:31.977Z,0.87
2023-05-23T03:06:31.948Z,0.86
2023-05-23T03:07:31.896Z,0.86
2023-05-23T03:08:31.870Z,0.85
2023-05-23T03:09:31.850Z,0.86
2023-05-23T03:10:31.830Z,0.84
2023-05-23T03:11:31.827Z,0.84
2023-05-23T03:12:31.802Z,0.86
2023-05-23T03:13:32.698Z,0.84
2023-05-23T03:14:31.772Z,0.83
2023-05-23T03:15:31.746Z,0.84
2023-05-23T03:16:31.897Z,0.84
2023-05-23T03:17:31.722Z,0.83
2023-05-23T03:18:31.692Z,0.84
2023-05-23T03:19:33.573Z,0.85
2023-05-23T03:20:31.644Z,0.85
2023-05-23T03:21:31.619Z,0.85
2023-05-23T03:22:31.600Z,0.85
2023-05-23T03:23:31.581Z,0.84
2023-05-23T03:24:31.563Z,0.83
2023-05-23T03:25:31.542Z,0.83
2023-05-23T03:26:31.710Z,0.83
2023-05-23T03:27:31.520Z,0.83
2023-05-23T03:28:31.489Z,0.81
2023-05-23T03:29:31.486Z,0.81
2023-05-23T03:30:31.459Z,0.83
2023-05-23T03:31:31.456Z,0.81
2023-05-23T03:32:31.570Z,0.81
2023-05-23T03:33:31.412Z,0.80
2023-05-23T03:34:31.455Z,0.81
2023-05-23T03:35:31.366Z,0.80
2023-05-23T03:36:31.353Z,0.81
2023-05-23T03:37:31.343Z,0.79
2023-05-23T03:38:31.386Z,0.81
2023-05-23T03:39:31.308Z,0.80
2023-05-23T03:40:31.331Z,0.80
2023-05-23T03:41:31.275Z,0.81
2023-05-23T03:42:31.308Z,0.80
2023-05-23T03:43:31.243Z,0.79
2023-05-23T03:44:31.227Z,0.78
2023-05-23T03:45:31.236Z,0.77
2023-05-23T03:46:31.303Z,0.80
2023-05-23T03:47:31.217Z,0.78
2023-05-23T03:48:31.311Z,0.79
2023-05-23T03:49:31.160Z,0.80
2023-05-23T03:50:31.154Z,0.78
2023-05-23T03:51:31.138Z,0.80
2023-05-23T03:52:31.122Z,0.79
2023-05-23T03:53:31.102Z,0.78
2023-05-23T03:54:31.086Z,0.78
2023-05-23T03:55:31.069Z,0.79
2023-05-23T03:56:31.060Z,0.78
2023-05-23T03:57:31.041Z,0.77
2023-05-23T03:58:31.043Z,0.76
2023-05-23T03:59:31.040Z,0.77
2023-05-23T04:00:31.014Z,0.78
2023-05-23T04:01:30.988Z,0.76
2023-05-23T04:02:31.033Z,0.77
2023-05-23T04:03:31.048Z,0.78
2023-05-23T04:04:31.126Z,0.77
2023-05-23T04:05:30.931Z,0.77
2023-05-23T04:06:30.941Z,0.77
2023-05-23T04:07:30.917Z,0.78
2023-05-23T04:08:30.907Z,0.74
2023-05-23T04:09:30.978Z,0.76
2023-05-23T04:10:30.946Z,0.75
2023-05-23T04:11:30.871Z,0.75
2023-05-23T04:12:30.859Z,0.76
2023-05-23T04:13:30.848Z,0.75
2023-05-23T04:14:31.217Z,0.75
2023-05-23T04:15:30.802Z,0.74
2023-05-23T04:16:30.854Z,0.73
2023-05-23T04:17:30.849Z,0.74
2023-05-23T04:18:30.770Z,0.76
2023-05-23T04:19:30.808Z,0.75
2023-05-23T04:20:30.825Z,0.76
2023-05-23T04:21:30.704Z,0.74
2023-05-23T04:22:30.685Z,0.75
2023-05-23T04:23:30.675Z,0.75
2023-05-23T04:24:30.684Z,0.73
2023-05-23T04:25:30.621Z,0.75
2023-05-23T04:26:30.619Z,0.73
2023-05-23T04:27:30.609Z,0.73
2023-05-23T04:28:30.591Z,0.75
2023-05-23T04:29:30.567Z,0.73
2023-05-23T04:30:30.636Z,0.75
2023-05-23T04:31:30.560Z,0.73
2023-05-23T04:32:30.545Z,0.73
2023-05-23T04:33:30.504Z,0.73
2023-05-23T04:34:30.465Z,0.73
2023-05-23T04:35:30.446Z,0.74
2023-05-23T04:36:30.823Z,0.72
2023-05-23T04:37:30.407Z,0.72
2023-05-23T04:38:30.384Z,0.72
2023-05-23T04:39:30.368Z,0.73
2023-05-23T04:40:30.342Z,0.73
2023-05-23T04:41:30.371Z,0.72
2023-05-23T04:42:30.307Z,0.71
2023-05-23T04:43:30.294Z,0.72
2023-05-23T04:44:30.312Z,0.71
2023-05-23T04:45:30.257Z,0.72
2023-05-23T04:46:30.284Z,0.72
2023-05-23T04:47:30.243Z,0.72
2023-05-23T04:48:30.216Z,0.70
2023-05-23T04:49:30.200Z,0.72
2023-05-23T04:50:30.175Z,0.71
2023-05-23T04:51:30.155Z,0.71
2023-05-23T04:52:30.229Z,0.71
2023-05-23T04:53:30.132Z,0.71
2023-05-23T04:54:30.121Z,0.71
2023-05-23T04:55:30.101Z,0.71
2023-05-23T04:56:30.081Z,0.71
2023-05-23T04:57:30.058Z,0.70
2023-05-23T04:58:30.043Z,0.70
2023-05-23T04:59:30.025Z,0.70
2023-05-23T05:00:30.007Z,0.70
2023-05-23T05:01:30.034Z,0.69
2023-05-23T05:02:29.967Z,0.70
2023-05-23T05:03:29.933Z,0.70
2023-05-23T05:04:29.980Z,0.70
2023-05-23T05:05:29.890Z,0.69
2023-05-23T05:06:29.878Z,0.69
2023-05-23T05:07:29.859Z,0.69
2023-05-23T05:08:29.933Z,0.69
2023-05-23T05:09:29.804Z,0.69
2023-05-23T05:10:29.863Z,0.69
2023-05-23T05:11:29.763Z,0.69
2023-05-23T05:12:29.737Z,0.71
2023-05-23T05:13:29.746Z,0.70
2023-05-23T05:14:29.780Z,0.70
2023-05-23T05:15:29.683Z,0.69
2023-05-23T05:16:29.704Z,0.69
2023-05-23T05:17:29.671Z,0.69
2023-05-23T05:18:29.626Z,0.68
2023-05-23T05:19:29.703Z,0.69
2023-05-23T05:20:29.585Z,0.68
2023-05-23T05:21:29.556Z,0.64
2023-05-23T05:22:29.551Z,0.57
2023-05-23T05:23:29.658Z,0.52
2023-05-23T05:24:29.591Z,0.51
2023-05-23T05:25:29.491Z,0.57
2023-05-23T05:26:29.461Z,0.55
2023-05-23T05:27:29.446Z,0.56
2023-05-23T05:28:29.436Z,0.55
2023-05-23T05:29:29.415Z,0.57
2023-05-23T05:30:29.396Z,0.58
2023-05-23T05:31:29.507Z,0.60
2023-05-23T05:32:29.422Z,0.58
2023-05-23T05:33:30.255Z,0.61
2023-05-23T05:34:29.399Z,0.57
2023-05-23T05:35:29.437Z,0.56
2023-05-23T05:36:29.526Z,0.57
2023-05-23T05:37:29.540Z,0.58
2023-05-23T05:38:29.583Z,0.59
2023-05-23T05:39:29.629Z,0.56
2023-05-23T05:40:29.679Z,0.58
2023-05-23T05:41:29.704Z,0.52
2023-05-23T05:42:29.745Z,0.56
2023-05-23T05:43:29.795Z,0.53
2023-05-23T05:44:29.822Z,0.51
2023-05-23T05:45:29.865Z,0.51
2023-05-23T05:46:29.929Z,0.52
2023-05-23T05:47:29.948Z,0.51
2023-05-23T05:48:29.969Z,0.51
2023-05-23T05:49:30.008Z,0.52
2023-05-23T05:50:30.041Z,0.52
2023-05-23T05:51:30.075Z,0.51
2023-05-23T05:52:30.120Z,0.53
2023-05-23T05:53:30.145Z,0.50
2023-05-23T05:54:30.192Z,0.51
2023-05-23T05:55:30.218Z,0.53
2023-05-23T05:56:30.350Z,0.56
2023-05-23T05:57:30.284Z,0.52
2023-05-23T05:58:30.328Z,0.50
2023-05-23T05:59:32.318Z,0.52
2023-05-23T06:00:30.449Z,0.53
2023-05-23T06:01:30.394Z,0.51
2023-05-23T06:02:30.487Z,0.53
2023-05-23T06:03:30.604Z,0.51
2023-05-23T06:04:30.514Z,0.51
2023-05-23T06:05:30.506Z,0.50
2023-05-23T06:06:30.555Z,0.55
2023-05-23T06:07:30.577Z,0.55
2023-05-23T06:08:30.673Z,0.58
2023-05-23T06:09:30.651Z,0.59
2023-05-23T06:10:30.695Z,0.58
2023-05-23T06:11:30.790Z,0.55
2023-05-23T06:12:30.830Z,0.56
2023-05-23T06:13:30.759Z,0.61
2023-05-23T06:14:31.283Z,0.63
2023-05-23T06:15:30.793Z,0.66
2023-05-23T06:16:30.812Z,0.67
2023-05-23T06:17:30.846Z,0.71
2023-05-23T06:18:30.795Z,0.74
2023-05-23T06:19:30.831Z,0.82
2023-05-23T06:20:30.793Z,0.90
2023-05-23T06:21:30.767Z,0.95
2023-05-23T06:22:30.762Z,0.96
2023-05-23T06:23:30.755Z,0.98
2023-05-23T06:24:30.750Z,1.00
2023-05-23T06:25:30.877Z,1.00
2023-05-23T06:26:30.756Z,1.01
2023-05-23T06:27:30.750Z,1.03
2023-05-23T06:28:31.696Z,1.05
2023-05-23T06:29:30.769Z,1.06
2023-05-23T06:30:30.765Z,1.04
2023-05-23T06:31:30.828Z,1.08
2023-05-23T06:32:30.809Z,1.06
2023-05-23T06:33:31.708Z,1.08
2023-05-23T06:34:30.829Z,1.08
2023-05-23T06:35:30.841Z,1.07
2023-05-23T06:36:30.854Z,1.10
2023-05-23T06:37:30.894Z,1.12
2023-05-23T06:38:30.894Z,1.09
2023-05-23T06:39:30.919Z,1.07
2023-05-23T06:40:30.939Z,1.09
2023-05-23T06:41:30.953Z,1.08
2023-05-23T06:42:30.968Z,1.10
2023-05-23T06:43:30.990Z,1.11
2023-05-23T06:44:31.106Z,1.09
2023-05-23T06:45:31.064Z,1.10
2023-05-23T06:46:31.136Z,1.11
2023-05-23T06:47:31.112Z,1.12
2023-05-23T06:48:31.122Z,1.13
2023-05-23T06:49:31.204Z,1.12
2023-05-23T06:50:31.166Z,1.11
2023-05-23T06:51:31.257Z,1.09
2023-05-23T06:52:31.224Z,1.12
2023-05-23T06:53:31.269Z,1.14
2023-05-23T06:54:31.280Z,1.10
2023-05-23T06:55:31.309Z,1.11
2023-05-23T06:56:31.354Z,1.09
2023-05-23T06:57:32.282Z,1.13
2023-05-23T06:58:31.402Z,1.13
2023-05-23T06:59:31.444Z,1.13
2023-05-23T07:00:31.606Z,1.14
2023-05-23T07:01:31.573Z,1.12
2023-05-23T07:02:31.557Z,1.12
2023-05-23T07:03:31.586Z,1.14
2023-05-23T07:04:31.610Z,1.12
2023-05-23T07:05:31.688Z,1.11
2023-05-23T07:06:31.729Z,1.13
2023-05-23T07:07:31.701Z,1.11
2023-05-23T07:08:31.738Z,1.13
2023-05-23T07:09:31.774Z,1.15
2023-05-23T07:10:31.792Z,1.12
2023-05-23T07:11:31.841Z,1.11
2023-05-23T07:12:34.651Z,1.12
2023-05-23T07:13:31.791Z,1.12
2023-05-23T07:14:31.776Z,1.13
2023-05-23T07:15:31.745Z,1.13
2023-05-23T07:16:31.874Z,1.13
2023-05-23T07:17:31.756Z,1.14
2023-05-23T07:18:31.688Z,1.14
2023-05-23T07:19:31.825Z,1.13
2023-05-23T07:20:32.298Z,1.12
2023-05-23T07:21:31.636Z,1.14
2023-05-23T07:22:31.627Z,1.11
2023-05-23T07:23:31.610Z,1.15
2023-05-23T07:24:31.585Z,1.17
2023-05-23T07:25:31.563Z,1.19
2023-05-23T07:26:31.595Z,1.18
2023-05-23T07:27:31.526Z,1.22
2023-05-23T07:28:31.514Z,1.25
2023-05-23T07:29:31.501Z,1.31
2023-05-23T07:30:33.368Z,1.36
2023-05-23T07:31:31.595Z,1.41
2023-05-23T07:32:31.599Z,1.44
2023-05-23T07:33:31.381Z,1.49
2023-05-23T07:34:31.359Z,1.51
2023-05-23T07:35:31.336Z,1.58
2023-05-23T07:36:31.308Z,1.57
2023-05-23T07:37:31.307Z,1.63
2023-05-23T07:38:31.229Z,1.70
2023-05-23T07:39:31.249Z,1.77
2023-05-23T07:40:31.169Z,1.80
2023-05-23T07:41:31.168Z,1.87
2023-05-23T07:42:32.176Z,1.87
2023-05-23T07:43:31.238Z,1.91
2023-05-23T07:44:31.078Z,2.00
2023-05-23T07:45:31.031Z,2.16
2023-05-23T07:46:31.103Z,2.43
2023-05-23T07:47:30.991Z,2.52
2023-05-23T07:48:30.936Z,2.62
2023-05-23T07:49:31.101Z,2.73
2023-05-23T07:50:30.862Z,2.79
2023-05-23T07:51:30.913Z,2.86
2023-05-23T07:52:30.916Z,2.95
2023-05-23T07:53:30.944Z,3.04
2023-05-23T07:54:30.984Z,3.18
2023-05-23T07:55:31.013Z,3.34
2023-05-23T07:56:31.061Z,3.35
2023-05-23T07:57:31.870Z,3.48
2023-05-23T07:58:31.112Z,3.58
2023-05-23T07:59:31.152Z,3.65
2023-05-23T08:00:31.171Z,3.74
2023-05-23T08:01:31.328Z,3.94
2023-05-23T08:02:31.399Z,4.10
2023-05-23T08:03:31.248Z,4.12
2023-05-23T08:04:31.346Z,4.33
2023-05-23T08:05:31.291Z,4.48
2023-05-23T08:06:31.325Z,4.69
2023-05-23T08:07:31.329Z,4.81
2023-05-23T08:08:31.357Z,4.93
2023-05-23T08:09:31.389Z,4.87
2023-05-23T08:10:31.408Z,5.14
2023-05-23T08:11:31.419Z,4.97
2023-05-23T08:12:31.456Z,5.25
2023-05-23T08:13:33.233Z,5.36
2023-05-23T08:14:38.700Z,5.02
2023-05-23T08:15:32.469Z,5.03
2023-05-23T08:16:31.505Z,3.89
2023-05-23T08:17:32.441Z,3.21
2023-05-23T08:18:31.402Z,2.89
2023-05-23T08:19:31.439Z,2.31
2023-05-23T08:20:31.354Z,2.12
2023-05-23T08:21:31.303Z,1.87
2023-05-23T08:22:31.286Z,1.87
2023-05-23T08:23:31.248Z,1.94
2023-05-23T08:24:31.217Z,1.89
2023-05-23T08:25:31.198Z,1.80
2023-05-23T08:26:31.168Z,1.70
2023-05-23T08:27:31.152Z,1.71
2023-05-23T08:28:31.201Z,1.75
2023-05-23T08:29:31.341Z,1.83
2023-05-23T08:30:31.312Z,1.88
2023-05-23T08:31:31.318Z,1.89
2023-05-23T08:32:31.398Z,2.00
2023-05-23T08:33:31.372Z,2.19
2023-05-23T08:34:32.321Z,2.27
2023-05-23T08:35:31.438Z,2.35
2023-05-23T08:36:32.324Z,2.47
2023-05-23T08:37:31.456Z,2.80
2023-05-23T08:38:31.502Z,2.97
2023-05-23T08:39:31.495Z,2.98
2023-05-23T08:40:31.509Z,3.15
2023-05-23T08:41:31.502Z,3.15
2023-05-23T08:42:31.548Z,3.31
2023-05-23T08:43:31.523Z,3.34
2023-05-23T08:44:31.533Z,3.42
2023-05-23T08:45:31.860Z,3.54
2023-05-23T08:46:31.645Z,3.59
2023-05-23T08:47:31.561Z,3.77
2023-05-23T08:48:31.540Z,3.77
2023-05-23T08:49:31.545Z,3.99
2023-05-23T08:50:31.835Z,4.11
2023-05-23T08:51:31.536Z,4.18
2023-05-23T08:52:31.529Z,4.43
2023-05-23T08:53:31.524Z,4.46
2023-05-23T08:54:31.520Z,4.81
2023-05-23T08:55:31.837Z,5.03
2023-05-23T08:56:31.473Z,5.39
2023-05-23T08:57:31.470Z,5.52
2023-05-23T08:58:31.447Z,5.86
2023-05-23T08:59:31.420Z,5.96
2023-05-23T09:00:31.411Z,6.15
2023-05-23T09:01:31.413Z,6.17
2023-05-23T09:02:32.447Z,6.77
2023-05-23T09:03:31.309Z,6.81
2023-05-23T09:04:31.288Z,7.07
2023-05-23T09:05:31.326Z,7.19
2023-05-23T09:06:31.210Z,7.39
2023-05-23T09:07:31.167Z,7.67
2023-05-23T09:08:31.132Z,7.74
2023-05-23T09:09:31.100Z,8.00
2023-05-23T09:10:31.061Z,8.24
2023-05-23T09:11:31.041Z,8.66
2023-05-23T09:12:30.996Z,8.66
2023-05-23T09:13:30.959Z,8.98
2023-05-23T09:14:30.935Z,9.31
2023-05-23T09:15:30.896Z,9.37
2023-05-23T09:16:30.875Z,9.14
2023-05-23T09:17:30.842Z,9.42
2023-05-23T09:18:30.783Z,9.89
2023-05-23T09:19:30.788Z,9.44
2023-05-23T09:20:30.841Z,7.87
2023-05-23T09:21:30.797Z,7.64
2023-05-23T09:22:30.676Z,7.45
2023-05-23T09:23:30.643Z,7.36
2023-05-23T09:24:30.609Z,7.37
2023-05-23T09:25:30.573Z,8.10
2023-05-23T09:26:30.544Z,9.32
2023-05-23T09:27:30.572Z,9.99
2023-05-23T09:28:30.530Z,9.63
2023-05-23T09:29:30.527Z,9.43
2023-05-23T09:30:30.603Z,9.24
2023-05-23T09:31:30.506Z,9.51
2023-05-23T09:32:30.460Z,9.50
2023-05-23T09:33:30.405Z,9.37
2023-05-23T09:34:30.364Z,10.62
2023-05-23T09:35:30.357Z,11.23
2023-05-23T09:36:30.310Z,11.90
2023-05-23T09:37:30.290Z,11.76
2023-05-23T09:38:30.293Z,11.63
2023-05-23T09:39:30.352Z,11.89
2023-05-23T09:40:30.292Z,12.05
2023-05-23T09:41:30.362Z,12.34
2023-05-23T09:42:30.270Z,12.44
2023-05-23T09:43:30.274Z,12.77
2023-05-23T09:44:30.282Z,12.65
2023-05-23T09:45:30.265Z,13.07
2023-05-23T09:46:30.389Z,13.47
2023-05-23T09:47:30.307Z,13.98
2023-05-23T09:48:30.273Z,14.29
2023-05-23T09:49:30.349Z,14.30
2023-05-23T09:50:30.360Z,14.88
2023-05-23T09:51:30.308Z,15.22
2023-05-23T09:52:30.314Z,15.68
2023-05-23T09:53:30.314Z,16.14
2023-05-23T09:54:30.319Z,16.78
2023-05-23T09:55:30.433Z,16.57
2023-05-23T09:56:30.421Z,17.25
2023-05-23T09:57:30.358Z,17.36
2023-05-23T09:58:30.414Z,18.03
2023-05-23T09:59:30.427Z,18.00
2023-05-23T10:00:30.457Z,17.85
2023-05-23T10:01:30.537Z,18.99
2023-05-23T10:02:30.507Z,21.17
2023-05-23T10:03:31.375Z,29.84
2023-05-23T10:04:30.540Z,30.04
2023-05-23T10:05:30.861Z,29.00
2023-05-23T10:06:30.567Z,27.65
2023-05-23T10:07:30.589Z,27.66
2023-05-23T10:08:30.606Z,27.45
2023-05-23T10:09:30.633Z,29.13
2023-05-23T10:10:30.677Z,31.25
2023-05-23T10:11:30.670Z,30.69
2023-05-23T10:12:30.697Z,29.52
2023-05-23T10:13:30.711Z,28.54
2023-05-23T10:14:30.749Z,28.57
2023-05-23T10:15:30.762Z,27.42
2023-05-23T10:16:30.825Z,26.36
2023-05-23T10:17:30.770Z,25.41
2023-05-23T10:18:33.364Z,25.34
2023-05-23T10:19:30.705Z,24.92
2023-05-23T10:20:30.615Z,24.09
2023-05-23T10:21:30.568Z,23.61
2023-05-23T10:22:31.289Z,23.68
2023-05-23T10:23:31.288Z,23.46
2023-05-23T10:24:30.431Z,24.02
2023-05-23T10:25:30.412Z,23.03
2023-05-23T10:26:30.358Z,22.74
2023-05-23T10:27:30.316Z,22.85
2023-05-23T10:28:30.263Z,22.34
2023-05-23T10:29:30.226Z,22.33
2023-05-23T10:30:30.202Z,22.37
2023-05-23T10:31:30.268Z,21.96
2023-05-23T10:32:30.154Z,21.75
2023-05-23T10:33:31.929Z,21.64
2023-05-23T10:34:30.043Z,22.17
2023-05-23T10:35:30.062Z,21.58
2023-05-23T10:36:29.985Z,21.20
2023-05-23T10:37:29.946Z,21.30
2023-05-23T10:38:30.858Z,21.31
2023-05-23T10:39:29.865Z,21.23
2023-05-23T10:40:29.831Z,20.68
2023-05-23T10:41:29.794Z,21.07
2023-05-23T10:42:29.760Z,20.66
2023-05-23T10:43:29.753Z,20.82
2023-05-23T10:44:29.745Z,20.32
2023-05-23T10:45:29.733Z,20.10
2023-05-23T10:46:29.800Z,19.81
2023-05-23T10:47:29.614Z,19.48
2023-05-23T10:48:29.537Z,19.68
2023-05-23T10:49:29.538Z,19.68
2023-05-23T10:50:29.503Z,19.59
2023-05-23T10:51:29.472Z,19.43
2023-05-23T10:52:29.372Z,19.18
2023-05-23T10:53:29.346Z,19.72
2023-05-23T10:54:29.317Z,18.70
2023-05-23T10:55:29.310Z,18.70
2023-05-23T10:56:29.314Z,18.77
2023-05-23T10:57:29.315Z,18.53
2023-05-23T10:58:29.309Z,18.89
2023-05-23T10:59:29.314Z,18.36
2023-05-23T11:00:29.343Z,18.73
2023-05-23T11:01:29.392Z,18.46
2023-05-23T11:02:29.434Z,18.36
2023-05-23T11:03:29.419Z,18.54
2023-05-23T11:04:29.391Z,18.30
2023-05-23T11:05:29.397Z,18.24
2023-05-23T11:06:29.344Z,18.34
2023-05-23T11:07:29.348Z,18.14
2023-05-23T11:08:43.250Z,18.23
2023-05-23T11:09:30.316Z,18.25
2023-05-23T11:10:29.294Z,18.28
2023-05-23T11:11:29.254Z,18.40
2023-05-23T11:12:29.214Z,18.35
2023-05-23T11:13:29.191Z,18.15
2023-05-23T11:14:29.909Z,18.44
2023-05-23T11:15:29.117Z,18.06
2023-05-23T11:16:29.220Z,17.53
2023-05-23T11:17:29.097Z,17.55
2023-05-23T11:18:29.113Z,17.77
2023-05-23T11:19:29.252Z,17.58
2023-05-23T11:20:28.967Z,17.04
2023-05-23T11:21:28.958Z,17.34
2023-05-23T11:22:28.971Z,17.49
2023-05-23T11:23:28.975Z,17.18
2023-05-23T11:24:28.996Z,16.81
2023-05-23T11:25:28.999Z,16.77
2023-05-23T11:26:29.016Z,16.25
2023-05-23T11:27:29.043Z,16.53
2023-05-23T11:28:29.881Z,16.53
2023-05-23T11:29:29.209Z,16.20
2023-05-23T11:30:29.138Z,16.29
2023-05-23T11:31:29.171Z,16.25
2023-05-23T11:32:29.110Z,16.04
2023-05-23T11:33:29.111Z,15.88
2023-05-23T11:34:29.127Z,15.51
2023-05-23T11:35:29.163Z,15.55
2023-05-23T11:36:29.159Z,15.51
2023-05-23T11:37:29.182Z,14.95
2023-05-23T11:38:31.898Z,15.22
2023-05-23T11:39:29.172Z,15.11
2023-05-23T11:40:29.146Z,15.01
2023-05-23T11:41:29.093Z,14.95
2023-05-23T11:42:29.063Z,14.64
2023-05-23T11:43:29.896Z,14.79
2023-05-23T11:44:29.006Z,14.71
2023-05-23T11:45:28.974Z,14.37
2023-05-23T11:46:29.057Z,14.02
2023-05-23T11:47:28.953Z,13.98
2023-05-23T11:48:28.848Z,14.05
2023-05-23T11:49:28.813Z,13.92
2023-05-23T11:50:28.793Z,13.57
2023-05-23T11:51:28.748Z,13.53
2023-05-23T11:52:29.458Z,12.96
2023-05-23T11:53:28.667Z,13.29
2023-05-23T11:54:28.713Z,12.72
2023-05-23T11:55:28.603Z,13.02
2023-05-23T11:56:28.644Z,12.64
2023-05-23T11:57:28.542Z,12.84
2023-05-23T11:58:28.487Z,12.35
2023-05-23T11:59:28.494Z,12.52
2023-05-23T12:00:28.427Z,12.24
2023-05-23T12:01:28.372Z,12.26
2023-05-23T12:02:28.428Z,12.13
2023-05-23T12:03:28.464Z,11.84
2023-05-23T12:04:28.296Z,11.83
2023-05-23T12:05:28.224Z,11.64
2023-05-23T12:06:28.194Z,11.74
2023-05-23T12:07:28.205Z,11.58
2023-05-23T12:08:28.123Z,11.65
2023-05-23T12:09:28.130Z,11.29
2023-05-23T12:10:28.903Z,11.30
2023-05-23T12:11:28.028Z,11.18
2023-05-23T12:12:28.752Z,11.23
2023-05-23T12:13:27.951Z,10.87
2023-05-23T12:14:27.924Z,11.08
2023-05-23T12:15:27.892Z,10.82
2023-05-23T12:16:27.939Z,10.88
2023-05-23T12:17:27.920Z,10.61
2023-05-23T12:18:27.765Z,10.59
2023-05-23T12:19:27.770Z,10.58
2023-05-23T12:20:27.694Z,10.67
2023-05-23T12:21:27.666Z,10.52
2023-05-23T12:22:27.653Z,10.35
2023-05-23T12:23:28.428Z,10.08
2023-05-23T12:24:27.644Z,10.32
2023-05-23T12:25:27.645Z,10.19
2023-05-23T12:26:27.631Z,10.19
2023-05-23T12:27:27.636Z,10.22
2023-05-23T12:28:27.624Z,10.19
2023-05-23T12:29:27.625Z,9.64
2023-05-23T12:30:27.622Z,9.88
2023-05-23T12:31:27.671Z,9.65
2023-05-23T12:32:28.434Z,9.85
2023-05-23T12:33:27.599Z,9.73
2023-05-23T12:34:27.584Z,9.56
2023-05-23T12:35:27.590Z,9.34
2023-05-23T12:36:29.764Z,9.67
2023-05-23T12:37:27.539Z,9.90
2023-05-23T12:38:27.525Z,9.54
2023-05-23T12:39:27.551Z,9.41
2023-05-23T12:40:27.463Z,9.40
2023-05-23T12:41:27.438Z,9.28
2023-05-23T12:42:29.985Z,9.22
2023-05-23T12:43:27.339Z,9.23
2023-05-23T12:44:27.305Z,9.23
2023-05-23T12:45:27.264Z,8.95
2023-05-23T12:46:27.312Z,9.05
2023-05-23T12:47:27.331Z,8.86
2023-05-23T12:48:27.190Z,9.18
2023-05-23T12:49:27.111Z,8.96
2023-05-23T12:50:27.075Z,8.93
2023-05-23T12:51:27.040Z,8.90
2023-05-23T12:52:26.996Z,8.80
2023-05-23T12:53:26.962Z,8.83
2023-05-23T12:54:26.935Z,8.70
2023-05-23T12:55:26.913Z,8.62
2023-05-23T12:56:26.868Z,8.74
2023-05-23T12:57:26.891Z,8.55
2023-05-23T12:58:28.059Z,8.63
2023-05-23T12:59:26.794Z,9.00
2023-05-23T13:00:26.754Z,8.69
2023-05-23T13:01:26.739Z,8.66
2023-05-23T13:02:26.701Z,8.44
2023-05-23T13:03:26.778Z,8.36
2023-05-23T13:04:27.236Z,8.26
2023-05-23T13:05:26.638Z,7.88
2023-05-23T13:06:26.633Z,8.12
2023-05-23T13:07:26.622Z,8.05
2023-05-23T13:08:26.644Z,8.01
2023-05-23T13:09:26.617Z,8.05
2023-05-23T13:10:27.049Z,7.99
2023-05-23T13:11:26.617Z,7.91
2023-05-23T13:12:26.606Z,7.89